createdAt,value
2019-04-27T00:00:14.180Z,101133.08
2019-04-27T00:02:44.097Z,101138.35
2019-04-27T00:05:32.515Z,101145.86
2019-04-27T00:08:17.123Z,101156.66
2019-04-27T00:11:05.109Z,101156.09
2019-04-27T00:13:36.277Z,101145.27
2019-04-27T00:16:09.705Z,101149.43
2019-04-27T00:18:56.451Z,101141.09
2019-04-27T00:21:40.073Z,101136.91
2019-04-27T00:24:08.594Z,101131.08
2019-04-27T00:26:36.839Z,101115.23
2019-04-27T00:29:05.417Z,101105.23
2019-04-27T00:31:33.840Z,101099.13
2019-04-27T00:34:03.605Z,101079.16
2019-04-27T00:36:40.119Z,101073.05
2019-04-27T00:39:13.846Z,101085.50
2019-04-27T00:41:43.042Z,101077.19
2019-04-27T00:44:11.254Z,101069.96
2019-04-27T00:46:39.472Z,101073.01
2019-04-27T00:49:07.733Z,101069.12
2019-04-27T00:51:35.942Z,101072.44
2019-04-27T00:54:04.683Z,101065.25
2019-04-27T00:56:50.998Z,101057.17
2019-04-27T00:59:23.910Z,101046.37
2019-04-27T01:01:56.223Z,101049.96
2019-04-27T01:04:29.469Z,101047.47
2019-04-27T01:06:57.693Z,101022.50
2019-04-27T01:09:26.030Z,101009.41
2019-04-27T01:11:54.290Z,101011.33
2019-04-27T01:14:23.161Z,101024.30
2019-04-27T01:16:51.487Z,101024.80
2019-04-27T01:19:19.882Z,101030.84
2019-04-27T01:21:49.665Z,101033.84
2019-04-27T01:24:18.893Z,101036.05
2019-04-27T01:26:49.921Z,101036.53
2019-04-27T01:29:22.976Z,101029.83
2019-04-27T01:31:51.275Z,101032.84
2019-04-27T01:34:19.507Z,101038.62
2019-04-27T01:36:49.282Z,101036.94
2019-04-27T01:39:18.877Z,101027.77
2019-04-27T01:41:48.998Z,101021.09
2019-04-27T01:44:19.261Z,101015.55
2019-04-27T01:46:48.701Z,101011.38
2019-04-27T01:49:17.195Z,101014.11
2019-04-27T01:51:45.417Z,101018.80
2019-04-27T01:54:15.283Z,101033.22
2019-04-27T01:56:43.764Z,101034.30
2019-04-27T01:59:12.634Z,101038.18
2019-04-27T02:01:59.437Z,101037.09
2019-04-27T02:04:32.271Z,101024.67
2019-04-27T02:07:02.448Z,101035.74
2019-04-27T02:09:30.746Z,101039.66
2019-04-27T02:11:59.345Z,101048.28
2019-04-27T02:14:28.770Z,101040.58
2019-04-27T02:16:57.103Z,101037.81
2019-04-27T02:19:25.359Z,101033.69
2019-04-27T02:21:53.579Z,101026.25
2019-04-27T02:24:21.805Z,101018.21
2019-04-27T02:26:50.303Z,101018.78
2019-04-27T02:29:26.257Z,101022.39
2019-04-27T02:31:56.111Z,101025.43
2019-04-27T02:34:41.880Z,101019.08
2019-04-27T02:37:10.451Z,101017.69
2019-04-27T02:39:39.905Z,101017.69
2019-04-27T02:42:10.112Z,101027.69
2019-04-27T02:44:40.676Z,101029.94
2019-04-27T02:47:10.303Z,101029.12
2019-04-27T02:49:40.560Z,101033.00
2019-04-27T02:52:10.670Z,101024.42
2019-04-27T02:54:40.038Z,101009.19
2019-04-27T02:57:10.142Z,101008.91
2019-04-27T02:59:39.926Z,101014.18
2019-04-27T03:02:19.708Z,101013.34
2019-04-27T03:04:49.862Z,101012.23
2019-04-27T03:07:20.076Z,101009.98
2019-04-27T03:09:50.626Z,101007.78
2019-04-27T03:12:20.117Z,101006.07
2019-04-27T03:14:50.704Z,101006.34
2019-04-27T03:17:22.828Z,101002.47
2019-04-27T03:20:01.117Z,101001.90
2019-04-27T03:22:42.839Z,101019.59
2019-04-27T03:25:15.367Z,101001.88
2019-04-27T03:27:45.292Z,101006.03
2019-04-27T03:30:15.211Z,101012.92
2019-04-27T03:32:43.794Z,101005.97
2019-04-27T03:35:13.326Z,100997.67
2019-04-27T03:37:41.891Z,101000.68
2019-04-27T03:40:10.487Z,100994.58
2019-04-27T03:42:40.508Z,100997.89
2019-04-27T03:45:10.854Z,100987.06
2019-04-27T03:47:40.731Z,100979.57
2019-04-27T03:50:10.789Z,100987.30
2019-04-27T03:52:56.819Z,100979.81
2019-04-27T03:55:43.037Z,100979.01
2019-04-27T03:58:21.869Z,100977.32
2019-04-27T04:00:52.190Z,100974.55
2019-04-27T04:03:20.656Z,100974.55
2019-04-27T04:05:49.476Z,100981.75
2019-04-27T04:08:19.372Z,100988.94
2019-04-27T04:10:49.575Z,100984.21
2019-04-27T04:13:20.461Z,100982.29
2019-04-27T04:15:54.429Z,100987.28
2019-04-27T04:18:23.809Z,100982.83
2019-04-27T04:20:52.117Z,100982.29
2019-04-27T04:23:20.733Z,100985.08
2019-04-27T04:25:49.911Z,100979.00
2019-04-27T04:28:19.986Z,100991.52
2019-04-27T04:30:50.118Z,100985.73
2019-04-27T04:33:20.577Z,100984.09
2019-04-27T04:35:49.710Z,100982.19
2019-04-27T04:38:20.556Z,100988.89
2019-04-27T04:40:50.421Z,100986.17
2019-04-27T04:43:20.472Z,100982.33
2019-04-27T04:46:09.804Z,100983.73
2019-04-27T04:48:35.855Z,100981.27
2019-04-27T04:51:04.066Z,100984.88
2019-04-27T04:53:32.298Z,100981.78
2019-04-27T04:56:00.540Z,100977.88
2019-04-27T04:58:29.441Z,100978.38
2019-04-27T05:00:59.600Z,100973.91
2019-04-27T05:03:28.672Z,100981.63
2019-04-27T05:05:58.680Z,100981.88
2019-04-27T05:08:27.094Z,100982.20
2019-04-27T05:10:55.319Z,100986.96
2019-04-27T05:13:23.545Z,100982.41
2019-04-27T05:15:51.826Z,100984.35
2019-04-27T05:18:20.353Z,100979.55
2019-04-27T05:20:50.466Z,100975.91
2019-04-27T05:23:18.797Z,100980.44
2019-04-27T05:25:47.105Z,100978.14
2019-04-27T05:28:15.369Z,100978.92
2019-04-27T05:30:43.595Z,100980.91
2019-04-27T05:33:11.842Z,100979.09
2019-04-27T05:35:41.125Z,100982.69
2019-04-27T05:38:12.922Z,100979.52
2019-04-27T05:40:40.334Z,100973.48
2019-04-27T05:43:09.332Z,100971.70
2019-04-27T05:46:21.794Z,100972.31
2019-04-27T05:48:50.341Z,100973.22
2019-04-27T05:51:19.754Z,100967.98
2019-04-27T05:53:49.537Z,100965.25
2019-04-27T05:56:19.284Z,100968.63
2019-04-27T05:58:49.067Z,100966.62
2019-04-27T06:01:19.570Z,100964.13
2019-04-27T06:03:49.684Z,100967.61
2019-04-27T06:06:19.607Z,100960.19
2019-04-27T06:08:49.509Z,100964.72
2019-04-27T06:11:19.527Z,100963.70
2019-04-27T06:13:49.216Z,100964.53
2019-04-27T06:16:19.343Z,100960.53
2019-04-27T06:18:49.337Z,100957.38
2019-04-27T06:21:19.436Z,100922.53
2019-04-27T06:23:48.774Z,100949.59
2019-04-27T06:26:17.347Z,100955.45
2019-04-27T06:28:45.575Z,100956.74
2019-04-27T06:31:13.791Z,100955.78
2019-04-27T06:33:42.109Z,100954.20
2019-04-27T06:36:10.336Z,100957.02
2019-04-27T06:38:39.378Z,100947.61
2019-04-27T06:41:09.889Z,100954.25
2019-04-27T06:43:37.747Z,100945.23
2019-04-27T06:46:05.986Z,100944.57
2019-04-27T06:48:34.229Z,100945.90
2019-04-27T06:51:03.558Z,100943.20
2019-04-27T06:53:32.678Z,100936.80
2019-04-27T06:56:00.917Z,100941.80
2019-04-27T06:58:29.341Z,100938.27
2019-04-27T07:00:59.358Z,100934.23
2019-04-27T07:03:28.937Z,100929.16
2019-04-27T07:05:58.814Z,100927.56
2019-04-27T07:08:28.650Z,100929.68
2019-04-27T07:10:58.847Z,100912.26
2019-04-27T07:13:28.998Z,100932.53
2019-04-27T07:15:57.409Z,100925.02
2019-04-27T07:18:25.647Z,100926.09
2019-04-27T07:20:53.859Z,100838.28
2019-04-27T07:23:22.420Z,100925.59
2019-04-27T07:25:50.747Z,100924.60
2019-04-27T07:28:19.103Z,100925.73
2019-04-27T07:30:48.770Z,100918.39
2019-04-27T07:33:18.625Z,100911.97
2019-04-27T07:35:46.878Z,100920.09
2019-04-27T07:38:15.171Z,100917.63
2019-04-27T07:40:43.397Z,100916.14
2019-04-27T07:43:15.776Z,100913.89
2019-04-27T07:45:44.014Z,100918.34
2019-04-27T07:48:12.239Z,100915.78
2019-04-27T07:50:40.459Z,100914.02
2019-04-27T07:53:09.038Z,100909.87
2019-04-27T07:55:37.320Z,100913.80
2019-04-27T07:58:05.539Z,100917.67
2019-04-27T08:00:33.767Z,100908.20
2019-04-27T08:03:02.012Z,100907.41
2019-04-27T08:05:30.709Z,100911.45
2019-04-27T08:08:00.172Z,100907.63
2019-04-27T08:10:29.206Z,100908.05
2019-04-27T08:12:59.571Z,100902.78
2019-04-27T08:15:29.050Z,100906.28
2019-04-27T08:17:59.222Z,100901.32
2019-04-27T08:20:29.248Z,100901.67
2019-04-27T08:23:01.095Z,100896.39
2019-04-27T08:25:28.695Z,100901.89
2019-04-27T08:28:00.274Z,100896.02
2019-04-27T08:30:48.965Z,100895.77
2019-04-27T08:33:19.073Z,100897.51
2019-04-27T08:35:48.963Z,100889.91
2019-04-27T08:38:18.991Z,100896.02
2019-04-27T08:40:49.368Z,100895.13
2019-04-27T08:43:19.114Z,100891.97
2019-04-27T08:45:48.795Z,100886.22
2019-04-27T08:48:25.140Z,100889.53
2019-04-27T08:50:48.627Z,100888.09
2019-04-27T08:53:18.515Z,100891.55
2019-04-27T08:55:46.835Z,100882.62
2019-04-27T08:58:15.046Z,100887.97
2019-04-27T09:00:43.282Z,100886.11
2019-04-27T09:03:11.747Z,100882.16
2019-04-27T09:05:39.958Z,100875.36
2019-04-27T09:08:19.161Z,100877.84
2019-04-27T09:10:52.085Z,100871.98
2019-04-27T09:13:25.237Z,100870.82
2019-04-27T09:16:04.314Z,100865.08
2019-04-27T09:18:33.743Z,100788.05
2019-04-27T09:21:03.657Z,100870.06
2019-04-27T09:23:31.903Z,100872.16
2019-04-27T09:26:00.193Z,100869.62
2019-04-27T09:28:29.453Z,100863.96
2019-04-27T09:30:58.628Z,100856.77
2019-04-27T09:33:27.202Z,100854.55
2019-04-27T09:35:56.731Z,100852.52
2019-04-27T09:38:26.445Z,100854.83
2019-04-27T09:40:57.743Z,100848.38
2019-04-27T09:43:26.458Z,100847.23
2019-04-27T09:45:55.750Z,100841.61
2019-04-27T09:48:25.959Z,100840.61
2019-04-27T09:50:55.937Z,100839.38
2019-04-27T09:53:24.445Z,100835.41
2019-04-27T09:55:52.679Z,100835.80
2019-04-27T09:58:21.243Z,100832.34
2019-04-27T10:00:49.554Z,100832.52
2019-04-27T10:03:17.784Z,100823.98
2019-04-27T10:05:46.058Z,100829.70
2019-04-27T10:08:14.546Z,100829.84
2019-04-27T10:10:42.749Z,100825.89
2019-04-27T10:13:11.490Z,100828.08
2019-04-27T10:15:39.701Z,100659.27
2019-04-27T10:18:08.004Z,100809.03
2019-04-27T10:20:40.509Z,100807.47
2019-04-27T10:23:06.494Z,100804.42
2019-04-27T10:25:35.519Z,100805.36
2019-04-27T10:28:06.755Z,100806.42
2019-04-27T10:30:35.842Z,100805.24
2019-04-27T10:33:07.724Z,100805.48
2019-04-27T10:35:36.177Z,100806.56
2019-04-27T10:38:04.400Z,100802.16
2019-04-27T10:40:32.897Z,100800.52
2019-04-27T10:43:01.100Z,100806.50
2019-04-27T10:45:30.166Z,100796.59
2019-04-27T10:47:58.371Z,100797.00
2019-04-27T10:50:26.734Z,100791.88
2019-04-27T10:52:56.801Z,100790.45
2019-04-27T10:55:26.193Z,100788.58
2019-04-27T10:57:54.845Z,100789.92
2019-04-27T11:00:25.671Z,100775.24
2019-04-27T11:02:54.003Z,100779.58
2019-04-27T11:05:36.147Z,100779.98
2019-04-27T11:08:04.451Z,100776.86
2019-04-27T11:10:33.072Z,100774.87
2019-04-27T11:13:01.280Z,100783.99
2019-04-27T11:15:29.568Z,100780.02
2019-04-27T11:17:57.803Z,100769.84
2019-04-27T11:20:27.845Z,100777.17
2019-04-27T11:23:06.615Z,100773.23
2019-04-27T11:25:26.423Z,100779.91
2019-04-27T11:27:57.538Z,100766.20
2019-04-27T11:30:25.265Z,100778.92
2019-04-27T11:32:56.680Z,100777.21
2019-04-27T11:35:25.803Z,100763.45
2019-04-27T11:37:56.129Z,100763.30
2019-04-27T11:40:24.371Z,100761.07
2019-04-27T11:42:52.576Z,100750.47
2019-04-27T11:45:22.455Z,100760.59
2019-04-27T11:47:50.677Z,100750.91
2019-04-27T11:50:19.584Z,100757.31
2019-04-27T11:52:47.836Z,100750.14
2019-04-27T11:55:16.263Z,100743.22
2019-04-27T11:57:44.544Z,100747.02
2019-04-27T12:00:16.500Z,100749.13
2019-04-27T12:02:45.727Z,100741.48
2019-04-27T12:05:15.987Z,100740.74
2019-04-27T12:07:47.499Z,100739.61
2019-04-27T12:10:15.734Z,100743.38
2019-04-27T12:12:46.189Z,100744.12
2019-04-27T12:15:16.048Z,100746.02
2019-04-27T12:17:46.071Z,100741.78
2019-04-27T12:20:15.948Z,100736.50
2019-04-27T12:22:44.518Z,100744.58
2019-04-27T12:25:12.739Z,100739.37
2019-04-27T12:27:42.584Z,100731.56
2019-04-27T12:30:16.234Z,100733.33
2019-04-27T12:32:45.772Z,100733.68
2019-04-27T12:35:14.113Z,100728.79
2019-04-27T12:37:42.317Z,100723.84
2019-04-27T12:40:10.530Z,100723.86
2019-04-27T12:42:39.010Z,100728.03
2019-04-27T12:45:08.433Z,100722.88
2019-04-27T12:47:36.656Z,100720.31
2019-04-27T12:50:11.749Z,100729.23
2019-04-27T12:52:41.067Z,100713.42
2019-04-27T12:55:11.182Z,100723.21
2019-04-27T12:57:46.853Z,100718.99
2019-04-27T13:00:32.155Z,100711.96
2019-04-27T13:03:00.363Z,100709.88
2019-04-27T13:05:28.585Z,100710.34
2019-04-27T13:07:56.777Z,100700.83
2019-04-27T13:10:25.423Z,100693.41
2019-04-27T13:12:53.665Z,100704.03
2019-04-27T13:15:21.877Z,100704.61
2019-04-27T13:17:50.120Z,100695.52
2019-04-27T13:20:18.844Z,100692.11
2019-04-27T13:22:47.406Z,100698.95
2019-04-27T13:25:15.642Z,100701.13
2019-04-27T13:27:43.873Z,100713.44
2019-04-27T13:30:12.549Z,100720.77
2019-04-27T13:32:40.782Z,100741.68
2019-04-27T13:35:09.107Z,100749.23
2019-04-27T13:37:39.326Z,100753.08
2019-04-27T13:40:09.627Z,100776.36
2019-04-27T13:42:45.601Z,100782.63
2019-04-27T13:45:18.387Z,100792.66
2019-04-27T13:48:13.448Z,100790.05
2019-04-27T13:50:56.479Z,100790.31
2019-04-27T13:53:26.237Z,100799.27
2019-04-27T13:55:56.621Z,100792.12
2019-04-27T13:58:24.477Z,100791.89
2019-04-27T14:00:52.737Z,100809.78
2019-04-27T14:03:21.171Z,100799.83
2019-04-27T14:05:49.563Z,100800.53
2019-04-27T14:08:18.022Z,100800.09
2019-04-27T14:10:46.234Z,100796.24
2019-04-27T14:13:17.373Z,100803.46
2019-04-27T14:15:44.695Z,100787.02
2019-04-27T14:18:12.937Z,100779.23
2019-04-27T14:20:41.470Z,100785.34
2019-04-27T14:23:14.238Z,100790.53
2019-04-27T14:25:42.844Z,100791.46
2019-04-27T14:28:11.415Z,100800.17
2019-04-27T14:30:40.050Z,100787.98
2019-04-27T14:33:09.031Z,100794.55
2019-04-27T14:35:37.569Z,100791.48
2019-04-27T14:38:05.791Z,100787.08
2019-04-27T14:40:34.005Z,100795.23
2019-04-27T14:43:02.227Z,100780.58
2019-04-27T14:45:30.467Z,100794.34
2019-04-27T14:47:58.817Z,100790.56
2019-04-27T14:50:27.068Z,100794.62
2019-04-27T14:52:55.357Z,100797.36
2019-04-27T14:55:23.578Z,100791.92
2019-04-27T14:57:51.817Z,100789.46
2019-04-27T15:00:20.791Z,100792.53
2019-04-27T15:02:49.129Z,100796.94
2019-04-27T15:05:17.731Z,100789.16
2019-04-27T15:07:45.978Z,100791.89
2019-04-27T15:10:16.186Z,100797.86
2019-04-27T15:12:44.188Z,100810.23
2019-04-27T15:15:12.432Z,100807.61
2019-04-27T15:17:41.019Z,100808.41
2019-04-27T15:20:28.710Z,100808.50
2019-04-27T15:22:58.398Z,100820.36
2019-04-27T15:25:27.286Z,100818.55
2019-04-27T15:28:01.287Z,100817.23
2019-04-27T15:30:47.626Z,100810.57
2019-04-27T15:33:33.345Z,100820.63
2019-04-27T15:36:07.665Z,100821.72
2019-04-27T15:38:38.952Z,100830.64
2019-04-27T15:41:11.696Z,100822.88
2019-04-27T15:43:41.583Z,100825.88
2019-04-27T15:46:10.105Z,100820.52
2019-04-27T15:48:38.593Z,100826.33
2019-04-27T15:51:15.645Z,100828.00
2019-04-27T15:53:39.427Z,100838.27
2019-04-27T15:56:08.771Z,100837.81
2019-04-27T15:58:38.270Z,100837.35
2019-04-27T16:01:09.942Z,100842.95
2019-04-27T16:03:38.959Z,100843.28
2019-04-27T16:06:11.701Z,100848.67
2019-04-27T16:08:44.788Z,100856.64
2019-04-27T16:11:11.708Z,100858.69
2019-04-27T16:13:38.362Z,100855.66
2019-04-27T16:16:08.501Z,100861.80
2019-04-27T16:18:38.874Z,100866.62
2019-04-27T16:21:10.203Z,100867.48
2019-04-27T16:23:42.686Z,100866.64
2019-04-27T16:26:11.159Z,100871.41
2019-04-27T16:28:37.646Z,100870.55
2019-04-27T16:31:05.848Z,100866.06
2019-04-27T16:33:34.495Z,100875.24
2019-04-27T16:36:06.988Z,100874.96
2019-04-27T16:38:38.796Z,100873.02
2019-04-27T16:41:08.191Z,100873.55
2019-04-27T16:43:38.431Z,100866.82
2019-04-27T16:46:06.427Z,100862.64
2019-04-27T16:48:36.138Z,100864.64
2019-04-27T16:51:04.544Z,100871.35
2019-04-27T16:53:38.182Z,100870.66
2019-04-27T16:56:14.722Z,100876.34
2019-04-27T16:58:39.719Z,100877.22
2019-04-27T17:01:10.864Z,100879.23
2019-04-27T17:03:41.384Z,100886.05
2019-04-27T17:06:09.389Z,100890.05
2019-04-27T17:08:39.384Z,100892.70
2019-04-27T17:11:11.410Z,100894.20
2019-04-27T17:13:39.384Z,100895.92
2019-04-27T17:16:24.670Z,100892.89
2019-04-27T17:18:57.756Z,100889.31
2019-04-27T17:21:25.865Z,100877.91
2019-04-27T17:23:56.956Z,100887.66
2019-04-27T17:26:24.319Z,100887.98
2019-04-27T17:28:59.765Z,100890.72
2019-04-27T17:31:29.724Z,100882.96
2019-04-27T17:34:00.553Z,100876.85
2019-04-27T17:36:29.282Z,100881.02
2019-04-27T17:38:58.313Z,100888.52
2019-04-27T17:41:28.305Z,100889.36
2019-04-27T17:43:58.960Z,100890.74
2019-04-27T17:46:28.220Z,100901.30
2019-04-27T17:49:00.010Z,100901.56
2019-04-27T17:51:28.593Z,100905.44
2019-04-27T17:53:58.641Z,100906.56
2019-04-27T17:56:35.345Z,100913.22
2019-04-27T17:58:58.635Z,100920.17
2019-04-27T18:01:30.145Z,100919.87
2019-04-27T18:04:00.289Z,100921.30
2019-04-27T18:06:29.478Z,100929.34
2019-04-27T18:09:01.547Z,100931.83
2019-04-27T18:11:28.771Z,100927.64
2019-04-27T18:14:00.346Z,100923.78
2019-04-27T18:16:30.334Z,100927.39
2019-04-27T18:19:07.970Z,100930.72
2019-04-27T18:21:30.506Z,100937.66
2019-04-27T18:24:09.422Z,100937.06
2019-04-27T18:26:56.365Z,100945.92
2019-04-27T18:29:22.790Z,100942.30
2019-04-27T18:31:54.543Z,100950.30
2019-04-27T18:34:21.521Z,100951.10
2019-04-27T18:36:49.743Z,100957.73
2019-04-27T18:39:18.351Z,100957.45
2019-04-27T18:41:50.595Z,100955.47
2019-04-27T18:44:19.006Z,100965.15
2019-04-27T18:46:48.790Z,100970.35
2019-04-27T18:49:30.232Z,100970.61
2019-04-27T18:52:06.551Z,100975.58
2019-04-27T18:54:38.292Z,100981.12
2019-04-27T18:57:05.593Z,100985.83
2019-04-27T18:59:34.147Z,100988.30
2019-04-27T19:02:02.631Z,100996.61
2019-04-27T19:04:30.832Z,100991.06
2019-04-27T19:07:00.101Z,100994.35
2019-04-27T19:09:28.683Z,101005.70
2019-04-27T19:11:56.889Z,101015.38
2019-04-27T19:14:25.437Z,101019.25
2019-04-27T19:16:53.643Z,101018.08
2019-04-27T19:19:22.212Z,101022.19
2019-04-27T19:21:50.676Z,101028.00
2019-04-27T19:24:19.330Z,101031.86
2019-04-27T19:27:15.268Z,101030.42
2019-04-27T19:29:39.629Z,101031.52
2019-04-27T19:32:08.156Z,101036.20
2019-04-27T19:34:36.746Z,101036.23
2019-04-27T19:37:05.322Z,101038.16
2019-04-27T19:39:33.532Z,101037.87
2019-04-27T19:42:03.857Z,101044.79
2019-04-27T19:44:31.705Z,101043.92
2019-04-27T19:47:00.363Z,101042.83
2019-04-27T19:49:31.271Z,101037.56
2019-04-27T19:51:58.896Z,101043.34
2019-04-27T19:54:28.293Z,101045.55
2019-04-27T19:56:57.155Z,101050.45
2019-04-27T19:59:28.047Z,101044.29
2019-04-27T20:01:58.412Z,101050.30
2019-04-27T20:04:31.296Z,101055.80
2019-04-27T20:06:59.603Z,101053.61
2019-04-27T20:09:49.799Z,101054.42
2019-04-27T20:12:18.061Z,101052.23
2019-04-27T20:14:55.380Z,101058.23
2019-04-27T20:17:24.756Z,101053.48
2019-04-27T20:19:52.966Z,101052.34
2019-04-27T20:22:22.780Z,101064.52
2019-04-27T20:24:51.387Z,101063.06
2019-04-27T20:27:21.181Z,101066.63
2019-04-27T20:29:49.526Z,101073.21
2019-04-27T20:32:17.749Z,101070.98
2019-04-27T20:34:46.290Z,101070.10
2019-04-27T20:37:14.501Z,101075.59
2019-04-27T20:39:43.034Z,101071.67
2019-04-27T20:42:12.616Z,101075.48
2019-04-27T20:44:41.312Z,101081.23
2019-04-27T20:47:10.193Z,101078.44
2019-04-27T20:49:38.397Z,101076.78
2019-04-27T20:52:08.297Z,101076.52
2019-04-27T20:54:36.763Z,101077.05
2019-04-27T20:57:05.851Z,101081.47
2019-04-27T20:59:34.150Z,101092.25
2019-04-27T21:02:22.356Z,100990.81
2019-04-27T21:04:51.879Z,101099.13
2019-04-27T21:07:21.730Z,101097.70
2019-04-27T21:09:50.302Z,101100.73
2019-04-27T21:12:18.882Z,101099.84
2019-04-27T21:14:47.478Z,101102.66
2019-04-27T21:17:16.061Z,101098.02
2019-04-27T21:19:44.282Z,101101.09
2019-04-27T21:22:12.490Z,101098.05
2019-04-27T21:24:41.359Z,101096.14
2019-04-27T21:27:12.864Z,101101.36
2019-04-27T21:29:39.837Z,101098.82
2019-04-27T21:32:08.369Z,101106.53
2019-04-27T21:34:36.554Z,101097.93
2019-04-27T21:37:05.014Z,101104.00
2019-04-27T21:39:33.224Z,101108.72
2019-04-27T21:42:01.461Z,101110.41
2019-04-27T21:44:29.664Z,101112.06
2019-04-27T21:46:57.886Z,101112.59
2019-04-27T21:49:26.132Z,101116.20
2019-04-27T21:52:14.535Z,101116.52
2019-04-27T21:54:48.500Z,101113.22
2019-04-27T21:57:16.870Z,101114.61
2019-04-27T21:59:45.140Z,101109.12
2019-04-27T22:02:14.623Z,101113.53
2019-04-27T22:04:42.815Z,101109.64
2019-04-27T22:07:11.527Z,101113.53
2019-04-27T22:09:43.092Z,101113.27
2019-04-27T22:12:11.215Z,101123.25
2019-04-27T22:14:39.984Z,101125.16
2019-04-27T22:17:08.460Z,101119.06
2019-04-27T22:19:36.672Z,101120.36
2019-04-27T22:22:06.523Z,101121.73
2019-04-27T22:24:36.359Z,101118.40
2019-04-27T22:27:04.560Z,101118.40
2019-04-27T22:29:33.151Z,101124.23
2019-04-27T22:32:01.701Z,101125.31
2019-04-27T22:34:31.200Z,101124.77
2019-04-27T22:37:02.314Z,101126.95
2019-04-27T22:39:31.563Z,101124.19
2019-04-27T22:42:01.813Z,101121.97
2019-04-27T22:44:31.818Z,101126.68
2019-04-27T22:46:59.961Z,101125.03
2019-04-27T22:49:28.182Z,101131.98
2019-04-27T22:51:56.734Z,101131.98
2019-04-27T22:54:25.210Z,101128.96
2019-04-27T22:56:55.321Z,101131.19
2019-04-27T22:59:34.160Z,101133.69
2019-04-27T23:02:04.005Z,101138.09
2019-04-27T23:04:43.103Z,101136.41
2019-04-27T23:07:11.306Z,101138.59
2019-04-27T23:09:40.717Z,101137.73
2019-04-27T23:12:09.794Z,101134.67
2019-04-27T23:14:38.006Z,101140.46
2019-04-27T23:17:24.276Z,101128.75
2019-04-27T23:19:52.680Z,101137.00
2019-04-27T23:22:21.410Z,101136.38
2019-04-27T23:24:51.717Z,101134.41
2019-04-27T23:27:21.517Z,101134.41
2019-04-27T23:29:51.486Z,101135.47
2019-04-27T23:32:33.355Z,101144.34
2019-04-27T23:35:01.558Z,101148.75
2019-04-27T23:37:29.782Z,101156.78
2019-04-27T23:39:58.291Z,101142.43
2019-04-27T23:42:26.538Z,101153.22
2019-04-27T23:44:54.755Z,101150.18
2019-04-27T23:47:22.985Z,101146.03
2019-04-27T23:49:51.246Z,100962.75
2019-04-27T23:52:37.461Z,101152.86
2019-04-27T23:55:06.044Z,101148.97
2019-04-27T23:57:34.271Z,101158.08
